createdAt,value
2022-10-03T00:00:08.410Z,100.00
2022-10-03T00:03:20.295Z,100.00
2022-10-03T00:06:15.419Z,100.00
2022-10-03T00:09:05.828Z,100.00
2022-10-03T00:11:53.486Z,100.00
2022-10-03T00:14:36.174Z,100.00
2022-10-03T00:17:15.278Z,100.00
2022-10-03T00:19:59.635Z,100.00
2022-10-03T00:22:42.347Z,100.00
2022-10-03T00:25:38.846Z,100.00
2022-10-03T00:28:25.077Z,100.00
2022-10-03T00:31:13.688Z,100.00
2022-10-03T00:34:04.567Z,100.00
2022-10-03T00:36:48.102Z,100.00
2022-10-03T00:39:51.048Z,100.00
2022-10-03T00:43:08.553Z,100.00
2022-10-03T00:46:30.386Z,100.00
2022-10-03T00:49:54.353Z,100.00
2022-10-03T00:52:53.957Z,100.00
2022-10-03T00:55:39.674Z,100.00
2022-10-03T00:58:53.151Z,100.00
2022-10-03T01:01:38.454Z,100.00
2022-10-03T01:04:31.646Z,100.00
2022-10-03T01:07:17.965Z,100.00
2022-10-03T01:10:12.511Z,100.00
2022-10-03T01:13:13.009Z,100.00
2022-10-03T01:15:54.593Z,100.00
2022-10-03T01:18:46.957Z,100.00
2022-10-03T01:21:32.972Z,100.00
2022-10-03T01:24:38.474Z,100.00
2022-10-03T01:27:11.913Z,100.00
2022-10-03T01:30:08.767Z,100.00
2022-10-03T01:32:49.314Z,100.00
2022-10-03T01:35:31.562Z,100.00
2022-10-03T01:38:18.232Z,100.00
2022-10-03T01:40:59.172Z,100.00
2022-10-03T01:43:42.709Z,100.00
2022-10-03T01:46:22.902Z,100.00
2022-10-03T01:49:02.617Z,100.00
2022-10-03T01:51:44.310Z,100.00
2022-10-03T01:54:29.484Z,100.00
2022-10-03T01:57:03.933Z,100.00
2022-10-03T01:59:43.353Z,100.00
2022-10-03T02:02:28.916Z,100.00
2022-10-03T02:05:12.821Z,100.00
2022-10-03T02:07:56.182Z,100.00
2022-10-03T02:10:38.922Z,100.00
2022-10-03T02:13:15.070Z,100.00
2022-10-03T02:15:59.202Z,100.00
2022-10-03T02:18:45.437Z,100.00
2022-10-03T02:21:21.289Z,100.00
2022-10-03T02:23:52.912Z,100.00
2022-10-03T02:27:31.725Z,100.00
2022-10-03T02:30:14.537Z,100.00
2022-10-03T02:33:25.401Z,100.00
2022-10-03T02:36:42.326Z,100.00
2022-10-03T02:39:55.357Z,100.00
2022-10-03T02:43:01.272Z,100.00
2022-10-03T02:46:10.487Z,100.00
2022-10-03T02:49:23.396Z,100.00
2022-10-03T02:52:33.904Z,100.00
2022-10-03T02:55:34.199Z,100.00
2022-10-03T02:58:58.004Z,100.00
2022-10-03T03:02:18.848Z,100.00
2022-10-03T03:05:29.702Z,100.00
2022-10-03T03:09:03.919Z,100.00
2022-10-03T03:12:20.290Z,100.00
2022-10-03T03:15:46.995Z,100.00
2022-10-03T03:18:32.590Z,100.00
2022-10-03T03:21:30.660Z,100.00
2022-10-03T03:24:37.811Z,100.00
2022-10-03T03:27:35.212Z,100.00
2022-10-03T03:30:12.978Z,100.00
2022-10-03T03:33:02.838Z,100.00
2022-10-03T03:35:53.301Z,100.00
2022-10-03T03:38:34.460Z,100.00
2022-10-03T03:41:24.671Z,100.00
2022-10-03T03:44:54.322Z,100.00
2022-10-03T03:47:46.452Z,100.00
2022-10-03T03:50:34.669Z,100.00
2022-10-03T03:53:35.349Z,100.00
2022-10-03T03:56:34.420Z,100.00
2022-10-03T03:59:22.514Z,100.00
2022-10-03T04:02:22.167Z,100.00
2022-10-03T04:05:09.316Z,100.00
2022-10-03T04:07:58.209Z,100.00
2022-10-03T04:10:48.665Z,100.00
2022-10-03T04:13:47.824Z,100.00
2022-10-03T04:16:53.390Z,100.00
2022-10-03T04:19:41.222Z,100.00
2022-10-03T04:22:30.338Z,100.00
2022-10-03T04:25:32.389Z,100.00
2022-10-03T04:28:36.171Z,100.00
2022-10-03T04:31:29.592Z,100.00
2022-10-03T04:34:24.643Z,100.00
2022-10-03T04:37:16.430Z,100.00
2022-10-03T04:40:03.670Z,100.00
2022-10-03T04:42:51.318Z,100.00
2022-10-03T04:45:39.550Z,100.00
2022-10-03T04:48:19.842Z,100.00
2022-10-03T04:51:07.617Z,100.00
2022-10-03T04:53:51.592Z,100.00
2022-10-03T04:56:41.483Z,100.00
2022-10-03T04:59:39.165Z,100.00
2022-10-03T05:02:25.933Z,100.00
2022-10-03T05:05:16.676Z,100.00
2022-10-03T05:07:55.753Z,100.00
2022-10-03T05:10:55.973Z,100.00
2022-10-03T05:13:42.456Z,100.00
2022-10-03T05:16:29.239Z,100.00
2022-10-03T05:19:33.455Z,100.00
2022-10-03T05:22:13.277Z,100.00
2022-10-03T05:24:52.681Z,100.00
2022-10-03T05:27:38.120Z,100.00
2022-10-03T05:30:17.589Z,100.00
2022-10-03T05:32:55.444Z,100.00
2022-10-03T05:35:45.007Z,100.00
2022-10-03T05:39:03.602Z,100.00
2022-10-03T05:41:36.534Z,100.00
2022-10-03T05:44:15.269Z,100.00
2022-10-03T05:47:06.756Z,100.00
2022-10-03T05:50:10.986Z,100.00
2022-10-03T05:53:03.748Z,100.00
2022-10-03T05:55:50.921Z,100.00
2022-10-03T05:59:18.956Z,100.00
2022-10-03T06:02:26.291Z,100.00
2022-10-03T06:05:21.553Z,100.00
2022-10-03T06:08:21.374Z,100.00
2022-10-03T06:11:04.516Z,100.00
2022-10-03T06:14:00.183Z,100.00
2022-10-03T06:16:46.196Z,100.00
2022-10-03T06:19:38.943Z,100.00
2022-10-03T06:23:06.066Z,100.00
2022-10-03T06:26:40.308Z,100.00
2022-10-03T06:29:54.825Z,100.00
2022-10-03T06:33:21.266Z,100.00
2022-10-03T06:36:21.493Z,100.00
2022-10-03T06:39:38.200Z,100.00
2022-10-03T06:42:48.613Z,100.00
2022-10-03T06:46:20.561Z,100.00
2022-10-03T06:49:33.382Z,100.00
2022-10-03T06:52:46.321Z,100.00
2022-10-03T06:56:05.328Z,100.00
2022-10-03T06:59:32.681Z,100.00
2022-10-03T07:03:00.980Z,100.00
2022-10-03T07:06:18.442Z,100.00
2022-10-03T07:09:38.488Z,100.00
2022-10-03T07:13:07.735Z,100.00
2022-10-03T07:20:10.111Z,100.00
2022-10-03T07:23:34.850Z,100.00
2022-10-03T07:26:56.048Z,100.00
2022-10-03T07:30:06.534Z,100.00
2022-10-03T07:33:20.762Z,100.00
2022-10-03T07:36:49.207Z,100.00
2022-10-03T07:40:30.126Z,100.00
2022-10-03T07:43:47.577Z,100.00
2022-10-03T07:47:05.643Z,100.00
2022-10-03T07:50:05.706Z,100.00
2022-10-03T07:53:24.879Z,100.00
2022-10-03T07:56:16.240Z,100.00
2022-10-03T07:59:26.170Z,100.00
2022-10-03T08:02:17.348Z,100.00
2022-10-03T08:05:19.996Z,100.00
2022-10-03T08:08:23.506Z,100.00
2022-10-03T08:11:34.400Z,100.00
2022-10-03T08:14:19.278Z,100.00
2022-10-03T08:17:31.774Z,100.00
2022-10-03T08:20:38.300Z,100.00
2022-10-03T08:23:37.304Z,100.00
2022-10-03T08:26:20.571Z,100.00
2022-10-03T08:29:32.207Z,100.00
2022-10-03T08:32:55.349Z,100.00
2022-10-03T08:35:48.369Z,100.00
2022-10-03T08:38:51.123Z,100.00
2022-10-03T08:42:35.249Z,100.00
2022-10-03T08:45:39.982Z,100.00
2022-10-03T08:48:57.957Z,100.00
2022-10-03T08:52:13.458Z,100.00
2022-10-03T08:55:31.094Z,100.00
2022-10-03T08:58:50.767Z,100.00
2022-10-03T09:01:50.437Z,100.00
2022-10-03T09:05:17.878Z,100.00
2022-10-03T09:08:36.750Z,100.00
2022-10-03T09:12:16.687Z,100.00
2022-10-03T09:15:29.039Z,100.00
2022-10-03T09:18:40.619Z,100.00
2022-10-03T09:22:01.303Z,100.00
2022-10-03T09:25:21.121Z,100.00
2022-10-03T09:28:48.064Z,98.50
2022-10-03T09:32:04.478Z,98.06
2022-10-03T09:35:39.549Z,99.91
2022-10-03T09:38:55.283Z,99.36
2022-10-03T09:41:56.578Z,98.48
2022-10-03T09:45:16.087Z,98.07
2022-10-03T09:48:33.243Z,98.23
2022-10-03T09:51:34.559Z,99.85
2022-10-03T09:54:48.526Z,100.00
2022-10-03T09:58:08.852Z,100.00
2022-10-03T10:01:25.106Z,98.75
2022-10-03T10:04:56.076Z,97.48
2022-10-03T10:07:57.434Z,96.11
2022-10-03T10:11:04.061Z,96.19
2022-10-03T10:14:22.134Z,93.85
2022-10-03T10:18:05.838Z,93.13
2022-10-03T10:21:28.858Z,91.32
2022-10-03T10:24:36.509Z,90.56
2022-10-03T10:27:43.885Z,90.10
2022-10-03T10:31:17.266Z,89.59
2022-10-03T10:34:42.427Z,89.56
2022-10-03T10:37:55.254Z,89.87
2022-10-03T10:41:19.722Z,89.70
2022-10-03T10:44:44.048Z,94.00
2022-10-03T10:47:52.714Z,94.76
2022-10-03T10:51:29.921Z,92.08
2022-10-03T10:55:03.584Z,89.51
2022-10-03T10:58:42.409Z,86.08
2022-10-03T11:02:24.563Z,84.25
2022-10-03T11:05:45.712Z,79.99
2022-10-03T11:09:08.303Z,80.72
2022-10-03T11:12:42.059Z,82.16
2022-10-03T11:16:03.049Z,83.29
2022-10-03T11:19:37.429Z,79.76
2022-10-03T11:23:15.770Z,79.98
2022-10-03T11:26:55.816Z,80.69
2022-10-03T11:30:19.513Z,77.72
2022-10-03T11:33:45.816Z,74.55
2022-10-03T11:37:07.228Z,72.31
2022-10-03T11:39:51.724Z,74.56
2022-10-03T11:42:33.965Z,72.16
2022-10-03T11:45:07.142Z,73.34
2022-10-03T11:47:58.203Z,74.35
2022-10-03T11:50:46.158Z,76.73
2022-10-03T11:53:43.567Z,78.19
2022-10-03T11:56:41.344Z,80.69
2022-10-03T11:59:48.897Z,81.74
2022-10-03T12:02:49.433Z,81.26
2022-10-03T12:05:30.163Z,79.16
2022-10-03T12:08:38.350Z,77.37
2022-10-03T12:11:19.642Z,77.24
2022-10-03T12:14:15.446Z,74.99
2022-10-03T12:17:05.886Z,74.61
2022-10-03T12:19:46.979Z,74.51
2022-10-03T12:22:37.840Z,72.52
2022-10-03T12:25:21.566Z,73.49
2022-10-03T12:28:14.719Z,74.66
2022-10-03T12:30:52.521Z,75.47
2022-10-03T12:33:49.820Z,76.01
2022-10-03T12:36:29.308Z,75.86
2022-10-03T12:39:14.944Z,73.51
2022-10-03T12:42:14.678Z,72.54
2022-10-03T12:44:56.369Z,72.06
2022-10-03T12:47:57.520Z,70.82
2022-10-03T12:50:43.320Z,73.92
2022-10-03T12:53:39.058Z,74.78
2022-10-03T12:56:18.822Z,74.30
2022-10-03T12:59:12.912Z,73.38
2022-10-03T13:02:12.601Z,73.61
2022-10-03T13:04:54.866Z,73.78
2022-10-03T13:07:41.136Z,77.21
2022-10-03T13:10:31.569Z,78.50
2022-10-03T13:13:24.278Z,77.89
2022-10-03T13:16:24.754Z,78.06
2022-10-03T13:19:06.446Z,77.24
2022-10-03T13:21:55.408Z,77.37
2022-10-03T13:24:34.430Z,76.16
2022-10-03T13:27:26.306Z,78.16
2022-10-03T13:30:05.376Z,77.69
2022-10-03T13:32:37.721Z,77.00
2022-10-03T13:35:40.479Z,77.69
2022-10-03T13:39:01.127Z,79.94
2022-10-03T13:42:00.831Z,81.42
2022-10-03T13:44:39.910Z,83.28
2022-10-03T13:47:29.275Z,81.77
2022-10-03T13:50:02.446Z,81.91
2022-10-03T13:52:43.771Z,82.91
2022-10-03T13:55:35.235Z,83.17
2022-10-03T13:58:45.862Z,85.70
2022-10-03T14:01:38.899Z,87.22
2022-10-03T14:04:44.060Z,87.10
2022-10-03T14:07:30.265Z,88.50
2022-10-03T14:10:27.662Z,88.36
2022-10-03T14:13:22.972Z,87.79
2022-10-03T14:16:03.141Z,88.66
2022-10-03T14:18:50.687Z,88.90
2022-10-03T14:22:00.317Z,88.80
2022-10-03T14:25:05.154Z,89.13
2022-10-03T14:27:52.481Z,89.65
2022-10-03T14:30:24.268Z,89.77
2022-10-03T14:33:18.389Z,90.64
2022-10-03T14:36:02.698Z,90.13
2022-10-03T14:39:05.535Z,89.75
2022-10-03T14:42:12.581Z,88.98
2022-10-03T14:44:48.080Z,90.20
2022-10-03T14:47:19.634Z,90.03
2022-10-03T14:49:59.217Z,91.72
2022-10-03T14:52:38.290Z,92.74
2022-10-03T14:55:15.976Z,92.89
2022-10-03T14:58:09.797Z,93.93
2022-10-03T15:00:45.411Z,94.66
2022-10-03T15:03:38.451Z,95.14
2022-10-03T15:06:34.364Z,96.63
2022-10-03T15:09:10.062Z,96.74
2022-10-03T15:11:48.503Z,96.48
2022-10-03T15:14:18.124Z,96.38
2022-10-03T15:16:55.023Z,95.27
2022-10-03T15:19:32.849Z,96.35
2022-10-03T15:22:15.117Z,97.45
2022-10-03T15:24:44.838Z,98.37
2022-10-03T15:27:21.902Z,99.08
2022-10-03T15:29:56.958Z,99.40
2022-10-03T15:32:34.878Z,99.64
2022-10-03T15:35:06.692Z,100.00
2022-10-03T15:37:45.419Z,100.00
2022-10-03T15:40:33.342Z,99.51
2022-10-03T15:43:21.044Z,99.30
2022-10-03T15:45:49.918Z,97.84
2022-10-03T15:48:26.427Z,96.64
2022-10-03T15:50:58.580Z,96.58
2022-10-03T15:53:36.545Z,95.91
2022-10-03T15:56:17.694Z,94.69
2022-10-03T15:58:51.639Z,94.87
2022-10-03T16:01:26.066Z,95.47
2022-10-03T16:04:03.069Z,95.75
2022-10-03T16:06:47.619Z,96.66
2022-10-03T16:09:28.008Z,97.16
2022-10-03T16:12:16.545Z,97.57
2022-10-03T16:14:51.540Z,97.63
2022-10-03T16:17:30.005Z,98.64
2022-10-03T16:20:10.072Z,97.62
2022-10-03T16:22:49.802Z,96.47
2022-10-03T16:25:22.796Z,96.49
2022-10-03T16:27:59.825Z,96.28
2022-10-03T16:30:33.673Z,95.21
2022-10-03T16:33:14.095Z,96.10
2022-10-03T16:35:48.839Z,95.98
2022-10-03T16:38:25.888Z,96.50
2022-10-03T16:41:01.868Z,96.63
2022-10-03T16:43:34.719Z,96.32
2022-10-03T16:46:15.131Z,96.35
2022-10-03T16:49:03.499Z,97.14
2022-10-03T16:51:43.429Z,96.94
2022-10-03T16:54:16.344Z,97.22
2022-10-03T16:56:50.401Z,97.58
2022-10-03T16:59:22.724Z,98.15
2022-10-03T17:01:54.052Z,98.62
2022-10-03T17:04:26.910Z,99.15
2022-10-03T17:07:01.418Z,99.48
2022-10-03T17:09:38.453Z,100.00
2022-10-03T17:12:17.351Z,100.00
2022-10-03T17:14:46.598Z,100.00
2022-10-03T17:17:32.202Z,100.00
2022-10-03T17:20:09.003Z,100.00
2022-10-03T17:22:46.100Z,100.00
2022-10-03T17:25:45.072Z,100.00
2022-10-03T17:28:28.848Z,100.00
2022-10-03T17:31:05.045Z,100.00
2022-10-03T17:33:43.595Z,100.00
2022-10-03T17:37:11.698Z,100.00
2022-10-03T17:39:51.707Z,100.00
2022-10-03T17:42:43.486Z,100.00
2022-10-03T17:45:34.539Z,100.00
2022-10-03T17:48:17.747Z,100.00
2022-10-03T17:51:02.644Z,100.00
2022-10-03T17:53:37.039Z,100.00
2022-10-03T17:56:14.474Z,100.00
2022-10-03T17:58:51.153Z,100.00
2022-10-03T18:01:22.479Z,100.00
2022-10-03T18:03:56.590Z,100.00
2022-10-03T18:06:48.554Z,100.00
2022-10-03T18:09:32.255Z,100.00
2022-10-03T18:12:18.284Z,100.00
2022-10-03T18:15:11.154Z,100.00
2022-10-03T18:17:59.801Z,100.00
2022-10-03T18:20:46.249Z,100.00
2022-10-03T18:23:52.997Z,100.00
2022-10-03T18:26:29.781Z,100.00
2022-10-03T18:29:17.206Z,100.00
2022-10-03T18:31:57.380Z,100.00
2022-10-03T18:34:36.058Z,100.00
2022-10-03T18:38:05.858Z,100.00
2022-10-03T18:40:38.536Z,100.00
2022-10-03T18:43:27.001Z,100.00
2022-10-03T18:46:14.302Z,100.00
2022-10-03T18:49:23.890Z,100.00
2022-10-03T18:51:47.851Z,100.00
2022-10-03T18:54:31.331Z,100.00
2022-10-03T18:57:15.642Z,100.00
2022-10-03T18:59:53.836Z,100.00
2022-10-03T19:02:32.767Z,100.00
2022-10-03T19:05:14.190Z,100.00
2022-10-03T19:07:52.100Z,100.00
2022-10-03T19:10:41.008Z,100.00
2022-10-03T19:13:32.774Z,100.00
2022-10-03T19:16:29.268Z,100.00
2022-10-03T19:19:12.477Z,100.00
2022-10-03T19:21:43.441Z,100.00
2022-10-03T19:24:24.383Z,100.00
2022-10-03T19:27:13.919Z,100.00
2022-10-03T19:29:47.838Z,100.00
2022-10-03T19:32:28.072Z,100.00
2022-10-03T19:35:05.733Z,100.00
2022-10-03T19:37:45.885Z,100.00
2022-10-03T19:40:38.548Z,100.00
2022-10-03T19:43:41.223Z,100.00
2022-10-03T19:46:28.943Z,100.00
2022-10-03T19:49:23.777Z,100.00
2022-10-03T19:52:10.175Z,100.00
2022-10-03T19:54:50.519Z,100.00
2022-10-03T19:57:23.510Z,100.00
2022-10-03T19:59:56.533Z,100.00
2022-10-03T20:02:27.306Z,100.00
2022-10-03T20:04:58.663Z,100.00
2022-10-03T20:07:46.143Z,100.00
2022-10-03T20:10:40.619Z,100.00
2022-10-03T20:13:11.858Z,100.00
2022-10-03T20:15:45.997Z,100.00
2022-10-03T20:18:23.894Z,100.00
2022-10-03T20:20:55.941Z,100.00
2022-10-03T20:23:29.835Z,100.00
2022-10-03T20:26:09.937Z,100.00
2022-10-03T20:29:03.890Z,100.00
2022-10-03T20:31:38.924Z,100.00
2022-10-03T20:34:15.379Z,100.00
2022-10-03T20:36:51.734Z,100.00
2022-10-03T20:39:28.914Z,100.00
2022-10-03T20:42:05.155Z,100.00
2022-10-03T20:45:15.598Z,100.00
2022-10-03T20:48:01.987Z,100.00
2022-10-03T20:50:36.191Z,100.00
2022-10-03T20:53:16.974Z,100.00
2022-10-03T20:55:52.092Z,100.00
2022-10-03T20:58:30.629Z,100.00
2022-10-03T21:01:05.581Z,100.00
2022-10-03T21:03:45.110Z,100.00
2022-10-03T21:06:22.156Z,100.00
2022-10-03T21:08:51.313Z,100.00
2022-10-03T21:11:27.352Z,100.00
2022-10-03T21:14:00.396Z,100.00
2022-10-03T21:16:34.873Z,100.00
2022-10-03T21:19:07.094Z,100.00
2022-10-03T21:21:42.370Z,100.00
2022-10-03T21:24:24.196Z,100.00
2022-10-03T21:27:00.318Z,100.00
2022-10-03T21:29:31.976Z,100.00
2022-10-03T21:32:28.305Z,100.00
2022-10-03T21:35:19.146Z,100.00
2022-10-03T21:38:01.200Z,100.00
2022-10-03T21:41:04.255Z,100.00
2022-10-03T21:43:50.254Z,100.00
2022-10-03T21:46:30.473Z,100.00
2022-10-03T21:49:25.974Z,100.00
2022-10-03T21:52:27.232Z,100.00
2022-10-03T21:55:50.651Z,100.00
2022-10-03T21:58:50.569Z,100.00
2022-10-03T22:01:31.362Z,100.00
2022-10-03T22:04:07.035Z,100.00
2022-10-03T22:06:44.076Z,100.00
2022-10-03T22:09:16.167Z,100.00
2022-10-03T22:11:54.083Z,100.00
2022-10-03T22:14:42.023Z,100.00
2022-10-03T22:17:27.092Z,100.00
2022-10-03T22:20:15.188Z,100.00
2022-10-03T22:23:07.533Z,100.00
2022-10-03T22:26:04.207Z,100.00
2022-10-03T22:28:54.391Z,100.00
2022-10-03T22:31:33.358Z,100.00
2022-10-03T22:34:38.619Z,100.00
2022-10-03T22:37:07.698Z,100.00
2022-10-03T22:39:38.055Z,100.00
2022-10-03T22:42:07.891Z,100.00
2022-10-03T22:44:43.856Z,100.00
2022-10-03T22:47:20.596Z,100.00
2022-10-03T22:49:59.027Z,100.00
2022-10-03T22:52:31.286Z,100.00
2022-10-03T22:55:04.116Z,100.00
2022-10-03T22:57:35.823Z,100.00
2022-10-03T23:00:09.761Z,100.00
2022-10-03T23:02:44.053Z,100.00
2022-10-03T23:05:26.851Z,100.00
2022-10-03T23:08:14.131Z,100.00
2022-10-03T23:10:55.191Z,100.00
2022-10-03T23:13:39.472Z,100.00
2022-10-03T23:16:26.495Z,100.00
2022-10-03T23:19:16.841Z,100.00
2022-10-03T23:21:49.525Z,100.00
2022-10-03T23:24:28.832Z,100.00
2022-10-03T23:27:38.969Z,100.00
2022-10-03T23:30:50.226Z,100.00
2022-10-03T23:33:39.352Z,100.00
2022-10-03T23:36:17.802Z,100.00
2022-10-03T23:39:01.794Z,100.00
2022-10-03T23:41:44.023Z,100.00
2022-10-03T23:44:43.653Z,100.00
2022-10-03T23:47:20.058Z,100.00
2022-10-03T23:49:52.025Z,100.00
2022-10-03T23:52:29.520Z,100.00
2022-10-03T23:55:06.896Z,100.00
2022-10-03T23:57:40.865Z,100.00
